createdAt,value
2019-03-10T00:01:54.169Z,10.80
2019-03-10T00:04:23.322Z,10.80
2019-03-10T00:06:52.404Z,10.80
2019-03-10T00:09:21.460Z,10.80
2019-03-10T00:11:50.482Z,10.80
2019-03-10T00:14:19.538Z,10.80
2019-03-10T00:16:48.525Z,10.80
2019-03-10T00:19:17.514Z,10.80
2019-03-10T00:21:46.620Z,10.80
2019-03-10T00:24:15.504Z,10.70
2019-03-10T00:29:13.072Z,10.80
2019-03-10T00:31:41.977Z,10.90
2019-03-10T00:34:11.005Z,10.90
2019-03-10T00:39:33.344Z,10.80
2019-03-10T00:42:55.504Z,10.80
2019-03-10T00:49:02.685Z,10.70
2019-03-10T00:52:16.699Z,10.70
2019-03-10T00:57:14.255Z,10.60
2019-03-10T00:59:43.265Z,10.50
2019-03-10T01:02:12.357Z,10.60
2019-03-10T01:07:09.936Z,10.60
2019-03-10T01:09:38.927Z,10.60
2019-03-10T01:14:36.600Z,10.60
2019-03-10T01:17:05.644Z,10.60
2019-03-10T01:19:34.978Z,10.60
2019-03-10T01:24:32.562Z,10.60
2019-03-10T01:34:51.705Z,10.60
2019-03-10T01:37:21.082Z,10.60
2019-03-10T01:39:50.040Z,10.50
2019-03-10T01:42:19.018Z,10.50
2019-03-10T01:47:16.592Z,10.50
2019-03-10T01:49:45.668Z,10.60
2019-03-10T01:52:14.613Z,10.60
2019-03-10T01:54:43.739Z,10.60
2019-03-10T01:57:12.828Z,10.50
2019-03-10T01:59:41.816Z,10.60
2019-03-10T02:02:10.771Z,10.60
2019-03-10T02:04:39.747Z,10.60
2019-03-10T02:07:08.641Z,10.60
2019-03-10T02:12:06.312Z,10.50
2019-03-10T02:14:35.434Z,10.60
2019-03-10T02:17:04.341Z,10.60
2019-03-10T02:19:33.336Z,10.60
2019-03-10T02:22:02.381Z,10.60
2019-03-10T02:26:59.858Z,10.60
2019-03-10T02:29:28.859Z,10.60
2019-03-10T02:31:57.816Z,10.60
2019-03-10T02:34:26.794Z,10.50
2019-03-10T02:36:56.091Z,10.60
2019-03-10T02:39:24.988Z,10.70
2019-03-10T02:41:54.021Z,10.70
2019-03-10T02:44:22.990Z,10.70
2019-03-10T02:46:52.000Z,10.70
2019-03-10T02:49:20.984Z,10.70
2019-03-10T02:51:50.020Z,10.80
2019-03-10T02:54:19.114Z,10.80
2019-03-10T02:56:48.421Z,10.80
2019-03-10T02:59:17.373Z,10.80
2019-03-10T03:01:46.499Z,10.80
2019-03-10T03:04:15.653Z,10.90
2019-03-10T03:06:44.665Z,10.90
2019-03-10T03:09:13.622Z,10.90
2019-03-10T03:11:42.654Z,10.90
2019-03-10T03:14:11.550Z,10.90
2019-03-10T03:19:09.274Z,10.80
2019-03-10T03:21:43.500Z,10.80
2019-03-10T03:26:37.541Z,10.70
2019-03-10T03:29:06.442Z,10.50
2019-03-10T03:31:35.481Z,10.40
2019-03-10T03:36:35.784Z,10.10
2019-03-10T03:39:35.426Z,10.00
2019-03-10T03:42:04.420Z,9.90
2019-03-10T03:47:01.961Z,9.80
2019-03-10T03:49:31.182Z,9.80
2019-03-10T03:52:00.163Z,9.70
2019-03-10T03:54:29.116Z,9.70
2019-03-10T03:56:58.170Z,9.60
2019-03-10T03:59:27.148Z,9.60
2019-03-10T04:02:02.952Z,9.50
2019-03-10T04:07:00.748Z,9.40
2019-03-10T04:09:29.761Z,9.40
2019-03-10T04:11:58.645Z,9.30
2019-03-10T04:14:27.805Z,9.20
2019-03-10T04:19:26.578Z,9.10
2019-03-10T04:24:24.281Z,9.00
2019-03-10T04:26:53.269Z,9.00
2019-03-10T04:29:22.197Z,8.90
2019-03-10T04:31:51.209Z,8.90
2019-03-10T04:34:20.116Z,8.80
2019-03-10T04:36:49.144Z,8.80
2019-03-10T04:39:18.164Z,8.80
2019-03-10T04:44:15.736Z,8.70
2019-03-10T04:46:44.775Z,8.60
2019-03-10T04:49:13.832Z,8.60
2019-03-10T04:51:42.877Z,8.60
2019-03-10T04:54:11.872Z,8.50
2019-03-10T04:57:03.371Z,8.50
2019-03-10T04:59:33.017Z,8.50
2019-03-10T05:02:02.055Z,8.50
2019-03-10T05:04:31.798Z,8.50
2019-03-10T05:07:00.965Z,8.50
2019-03-10T05:09:29.884Z,8.50
2019-03-10T05:11:58.939Z,8.30
2019-03-10T05:14:27.847Z,8.30
2019-03-10T05:16:56.744Z,8.40
2019-03-10T05:19:25.978Z,8.40
2019-03-10T05:21:54.948Z,8.40
2019-03-10T05:24:24.017Z,8.40
2019-03-10T05:26:53.045Z,8.30
2019-03-10T05:29:22.017Z,8.40
2019-03-10T05:31:50.953Z,8.30
2019-03-10T05:34:19.925Z,8.20
2019-03-10T05:36:48.936Z,8.20
2019-03-10T05:39:18.321Z,8.10
2019-03-10T05:41:47.226Z,8.10
2019-03-10T05:44:16.096Z,8.10
2019-03-10T05:46:45.101Z,8.20
2019-03-10T05:49:14.084Z,8.20
2019-03-10T05:51:43.064Z,8.10
2019-03-10T05:54:12.015Z,8.00
2019-03-10T05:56:41.031Z,8.10
2019-03-10T05:59:09.989Z,8.00
2019-03-10T06:04:07.648Z,8.00
2019-03-10T06:06:36.667Z,8.00
2019-03-10T06:14:03.588Z,8.10
2019-03-10T06:16:32.633Z,8.20
2019-03-10T06:19:01.684Z,8.20
2019-03-10T06:21:30.696Z,8.20
2019-03-10T06:23:59.647Z,8.20
2019-03-10T06:26:28.697Z,8.20
2019-03-10T06:28:57.714Z,8.30
2019-03-10T06:31:26.672Z,8.30
2019-03-10T06:33:55.657Z,8.30
2019-03-10T06:36:24.631Z,8.40
2019-03-10T06:38:55.228Z,8.50
2019-03-10T06:43:54.416Z,8.50
2019-03-10T06:46:23.385Z,8.50
2019-03-10T06:51:20.960Z,8.80
2019-03-10T06:53:50.013Z,8.80
2019-03-10T06:56:19.127Z,8.90
2019-03-10T07:01:16.817Z,9.10
2019-03-10T07:03:45.837Z,9.10
2019-03-10T07:06:14.828Z,9.10
2019-03-10T07:08:43.812Z,9.20
2019-03-10T07:13:41.677Z,9.30
2019-03-10T07:16:10.758Z,9.40
2019-03-10T07:21:08.533Z,9.50
2019-03-10T07:23:37.625Z,9.60
2019-03-10T07:29:13.353Z,9.70
2019-03-10T07:31:49.917Z,9.80
2019-03-10T07:37:38.410Z,10.00
2019-03-10T07:40:26.572Z,10.00
2019-03-10T07:43:23.841Z,10.10
2019-03-10T07:46:13.402Z,10.10
2019-03-10T07:48:55.725Z,10.20
2019-03-10T07:51:35.346Z,10.20
2019-03-10T07:54:23.037Z,10.20
2019-03-10T07:57:11.621Z,10.30
2019-03-10T08:00:01.722Z,10.40
2019-03-10T08:02:43.239Z,10.50
2019-03-10T08:05:37.381Z,10.50
2019-03-10T08:11:19.448Z,10.70
2019-03-10T08:16:49.644Z,10.90
2019-03-10T08:19:56.318Z,11.00
2019-03-10T08:22:43.301Z,11.00
2019-03-10T08:25:43.641Z,11.10
2019-03-10T08:28:30.703Z,11.20
2019-03-10T08:31:17.680Z,11.10
2019-03-10T08:37:01.483Z,11.30
2019-03-10T08:39:48.340Z,11.30
2019-03-10T08:42:36.393Z,11.30
2019-03-10T08:45:13.975Z,11.40
2019-03-10T08:47:53.026Z,11.40
2019-03-10T08:53:39.325Z,11.50
2019-03-10T08:59:01.937Z,11.50
2019-03-10T09:01:48.672Z,11.50
2019-03-10T09:04:40.016Z,11.50
2019-03-10T09:10:23.933Z,11.60
2019-03-10T09:13:16.548Z,11.60
2019-03-10T09:15:56.125Z,11.60
2019-03-10T09:24:28.769Z,11.70
2019-03-10T09:27:19.782Z,11.70
2019-03-10T09:30:26.021Z,11.70
2019-03-10T09:35:49.864Z,11.70
2019-03-10T09:38:41.005Z,11.70
2019-03-10T09:44:43.946Z,11.80
2019-03-10T09:50:44.865Z,11.90
2019-03-10T09:53:31.937Z,11.80
2019-03-10T09:56:38.373Z,11.90
2019-03-10T09:59:38.357Z,11.90
2019-03-10T10:02:25.004Z,12.10
2019-03-10T10:05:22.257Z,12.00
2019-03-10T10:08:22.485Z,12.00
2019-03-10T10:11:10.496Z,11.90
2019-03-10T10:13:48.326Z,12.00
2019-03-10T10:16:30.295Z,12.20
2019-03-10T10:19:33.704Z,12.20
2019-03-10T10:22:29.246Z,12.20
2019-03-10T10:25:09.781Z,12.30
2019-03-10T10:31:01.401Z,12.90
2019-03-10T10:39:34.281Z,12.80
2019-03-10T10:42:31.550Z,12.80
2019-03-10T10:48:25.408Z,12.80
2019-03-10T10:51:25.360Z,12.90
2019-03-10T10:54:16.264Z,13.00
2019-03-10T11:02:32.135Z,13.00
2019-03-10T11:08:05.605Z,12.90
2019-03-10T11:10:52.517Z,12.90
2019-03-10T11:13:40.606Z,13.20
2019-03-10T11:16:24.522Z,14.20
2019-03-10T11:19:07.886Z,15.90
2019-03-10T11:21:47.299Z,15.80
2019-03-10T11:24:24.727Z,15.20
2019-03-10T11:32:59.238Z,15.00
2019-03-10T11:35:39.860Z,15.80
2019-03-10T11:38:21.427Z,16.20
2019-03-10T11:44:08.321Z,16.80
2019-03-10T11:46:48.629Z,17.20
2019-03-10T11:52:15.629Z,18.00
2019-03-10T11:57:53.469Z,16.40
2019-03-10T12:00:47.532Z,16.70
2019-03-10T12:03:34.350Z,17.10
2019-03-10T12:09:02.058Z,16.90
2019-03-10T12:13:59.628Z,15.90
2019-03-10T12:16:31.030Z,16.20
2019-03-10T12:21:28.260Z,16.10
2019-03-10T12:26:25.842Z,16.30
2019-03-10T12:28:54.919Z,16.90
2019-03-10T12:31:23.984Z,16.80
2019-03-10T12:33:53.134Z,17.10
2019-03-10T12:36:22.289Z,17.20
2019-03-10T12:38:51.465Z,16.90
2019-03-10T12:43:49.265Z,16.20
2019-03-10T12:46:18.361Z,17.00
2019-03-10T12:48:47.370Z,16.80
2019-03-10T12:51:16.497Z,16.80
2019-03-10T12:53:45.494Z,17.10
2019-03-10T12:56:14.609Z,16.90
2019-03-10T12:58:43.719Z,17.20
2019-03-10T13:01:12.785Z,17.40
2019-03-10T13:03:43.006Z,17.10
2019-03-10T13:06:12.211Z,17.10
2019-03-10T13:08:41.237Z,16.90
2019-03-10T13:11:10.342Z,16.70
2019-03-10T13:13:39.405Z,17.10
2019-03-10T13:16:08.494Z,17.50
2019-03-10T13:21:06.383Z,17.40
2019-03-10T13:23:35.541Z,17.40
2019-03-10T13:26:04.724Z,17.50
2019-03-10T13:28:33.863Z,17.30
2019-03-10T13:31:02.941Z,17.40
2019-03-10T13:33:32.016Z,17.50
2019-03-10T13:36:01.313Z,16.90
2019-03-10T13:40:59.133Z,17.10
2019-03-10T13:43:28.146Z,17.20
2019-03-10T13:45:58.248Z,16.80
2019-03-10T13:50:55.908Z,16.90
2019-03-10T13:53:26.580Z,17.10
2019-03-10T13:55:55.732Z,17.20
2019-03-10T14:00:53.425Z,17.10
2019-03-10T14:03:22.455Z,16.90
2019-03-10T14:10:48.947Z,16.30
2019-03-10T14:13:18.000Z,16.30
2019-03-10T14:18:15.629Z,16.80
2019-03-10T14:28:10.470Z,17.10
2019-03-10T14:30:39.584Z,17.10
2019-03-10T14:35:37.032Z,17.50
2019-03-10T14:38:06.132Z,16.80
2019-03-10T14:40:35.429Z,17.10
2019-03-10T14:43:04.607Z,17.10
2019-03-10T14:45:33.713Z,16.70
2019-03-10T14:48:02.717Z,17.10
2019-03-10T14:50:31.867Z,17.00
2019-03-10T14:57:58.270Z,16.10
2019-03-10T15:00:27.631Z,15.70
2019-03-10T15:02:56.724Z,15.70
2019-03-10T15:07:54.576Z,16.70
2019-03-10T15:10:23.652Z,16.60
2019-03-10T15:12:52.800Z,16.30
2019-03-10T15:15:23.120Z,15.90
2019-03-10T15:17:52.538Z,16.10
2019-03-10T15:22:51.335Z,15.80
2019-03-10T15:25:20.348Z,15.70
2019-03-10T15:27:49.451Z,15.60
2019-03-10T15:30:18.691Z,15.50
2019-03-10T15:32:47.870Z,14.90
2019-03-10T15:35:17.010Z,14.70
2019-03-10T15:37:46.174Z,14.70
2019-03-10T15:40:15.426Z,14.80
2019-03-10T15:42:44.478Z,14.70
2019-03-10T15:45:13.532Z,14.40
2019-03-10T15:52:44.308Z,14.00
2019-03-10T15:55:13.442Z,13.60
2019-03-10T15:57:50.059Z,13.80
2019-03-10T16:00:14.981Z,13.60
2019-03-10T16:02:44.048Z,13.60
2019-03-10T16:05:13.181Z,13.80
2019-03-10T16:07:42.170Z,13.60
2019-03-10T16:15:11.211Z,13.60
2019-03-10T16:17:40.407Z,13.60
2019-03-10T16:20:10.514Z,13.50
2019-03-10T16:22:39.511Z,13.30
2019-03-10T16:30:08.670Z,13.70
2019-03-10T16:32:37.728Z,13.40
2019-03-10T16:35:08.942Z,13.40
2019-03-10T16:37:37.986Z,13.40
2019-03-10T16:40:08.516Z,13.20
2019-03-10T16:42:37.732Z,13.10
2019-03-10T16:45:08.935Z,13.00
2019-03-10T16:47:38.080Z,13.00
2019-03-10T16:50:07.769Z,12.80
2019-03-10T16:52:36.821Z,12.90
2019-03-10T16:55:06.579Z,12.80
2019-03-10T16:57:35.770Z,12.60
2019-03-10T17:00:05.427Z,12.60
2019-03-10T17:02:34.699Z,12.50
2019-03-10T17:05:03.791Z,12.30
2019-03-10T17:07:32.859Z,12.50
2019-03-10T17:12:30.601Z,12.20
2019-03-10T17:14:59.664Z,12.00
2019-03-10T17:17:28.871Z,12.10
2019-03-10T17:19:58.041Z,12.00
2019-03-10T17:24:55.802Z,11.80
2019-03-10T17:27:24.888Z,11.90
2019-03-10T17:29:53.909Z,11.80
2019-03-10T17:32:22.990Z,11.80
2019-03-10T17:34:51.944Z,11.60
2019-03-10T17:44:47.130Z,11.50
2019-03-10T17:47:16.304Z,11.50
2019-03-10T17:52:14.779Z,11.40
2019-03-10T17:54:44.093Z,11.50
2019-03-10T17:57:13.229Z,11.40
2019-03-10T17:59:42.493Z,11.50
2019-03-10T18:04:40.213Z,11.40
2019-03-10T18:07:09.582Z,11.40
2019-03-10T18:09:38.703Z,11.40
2019-03-10T18:12:07.776Z,11.50
2019-03-10T18:14:36.909Z,11.50
2019-03-10T18:17:05.922Z,11.60
2019-03-10T18:22:03.721Z,11.40
2019-03-10T18:24:32.902Z,11.30
2019-03-10T18:27:02.173Z,11.20
2019-03-10T18:29:32.550Z,11.10
2019-03-10T18:32:02.447Z,10.90
2019-03-10T18:34:31.665Z,10.80
2019-03-10T18:37:00.916Z,10.70
2019-03-10T18:39:30.098Z,10.70
2019-03-10T18:41:59.473Z,10.60
2019-03-10T18:44:28.658Z,10.60
2019-03-10T18:49:26.407Z,9.20
2019-03-10T18:51:55.520Z,8.30
2019-03-10T18:56:53.231Z,7.50
2019-03-10T18:59:22.384Z,7.40
2019-03-10T19:01:51.561Z,7.50
2019-03-10T19:04:20.710Z,7.50
2019-03-10T19:06:49.709Z,7.50
2019-03-10T19:09:18.970Z,7.70
2019-03-10T19:11:48.144Z,7.80
2019-03-10T19:14:17.317Z,7.90
2019-03-10T19:19:15.246Z,7.80
2019-03-10T19:21:44.394Z,7.70
2019-03-10T19:24:13.533Z,7.60
2019-03-10T20:22:53.417Z,7.80
2019-03-10T21:28:00.188Z,7.50
